Mineral Springs, PA

12:19 AM EDT on September 24, 2014 (GMT -0400)
Du Bois-Jefferson County | Change Station
CLOSE
Current Station
Airport
Location: Du Bois,
Elevation: 1818 ft
Nearby Weather Stations

Elev 1818 ft 41.18 °N, 78.90 °W | Updated 26 minutes ago

Clear
Clear
49 °F
Feels Like 49 °F
N
6
Wind Variable Wind from East

Today
High -- | Low -- °F
--% Chance of Precip.
Yesterday
High -- | Low -- °F
Precip. -- in
7:02 AM 7:07 PM
Waning Crescent, 0% visible
Pressure 30.41 in
Visibility 10.0 miles
Clouds Clear
Dew Point 47 °F
Humidity 93%
Rainfall 0.00 in
Snow Depth Not available.
UV 0 out of 12
Pollen 2.70 out of 12
Air Quality Not available.
Flu Activity Not available.
METAR KDUJ 240353Z AUTO 09005KT 10SM CLR 09/08 A3040 RMK AO2 SLP296 T00940083

More Conditions Fewer Conditions

Pressure 30.41 in
Visibility 10.0 miles
Clouds Clear
Dew Point 47 °F
Humidity 93%
Rainfall 0.00 in
Snow Depth Not available.
UV 0 out of 12
Pollen 2.70 out of 12
Air Quality Not available.
Flu Activity Not available.
METAR KDUJ 240353Z AUTO 09005KT 10SM CLR 09/08 A3040 RMK AO2 SLP296 T00940083

More Conditions Fewer Conditions

10-Day Weather Forecast

Almanac

Astronomy

Sep. 24, 2014 Rise Set
Actual Time 7:02 AM EDT 7:07 PM EDT
Civil Twilight 6:35 AM EDT 7:34 PM EDT
Nautical Twilight 6:03 AM EDT 8:06 PM EDT
Astronomical Twilight 5:30 AM EDT 8:39 PM EDT
Moon 7:22 AM EDT 7:16 PM EDT
Length of Visible Light 12h 59m
Length of Day
12h 04m
Tomorrow will be 2m 43s shorter.
Waning Crescent, 0% of the Moon is Illuminated
Today
Waning Crescent
Sep 24
New
Oct 1
First Quarter
Oct 8
Full
Oct 15
Last Quarter

Yesterday's Extremes

State Highs State Lows

Community

WunderPhotos

Upload Photos

1,755,890 photos uploaded!

WunderBlogs® & News

Nearby

Snow Depth

Station Depth Elevation
No new snow has been reported.

Earthquake Activity

City Distance Mag. Time & Date
No recent earthquake activity has been reported nearby.
Minimum magnitude displayed is 2.5.

Coastal Water Temperatures

Place Temperature
No Stations Reporting

Nearby Weather Stations